X  Close Metar Aviation Weather Data     EGMD Lydd Airport
Temperature
7°C Temperature
2°C Dewpoint
71% Humidity



Wind
13 MPH
21 KM/H
6 M/S
11 KTS



260°
W
Current Conditions

Clear Clear
Pressure 1008.81 (hPa) - 29.79 (inHg)
Visibility 6 (mile) - 9.7 (km)
Airport
Airport-code EGMD

Location: Lydd Airport
Distance: 9 (mi)

Metar:
EGMD 152120Z AUTO 26011KT 9999 NCD 07/02 Q1009

Time: 15-04-2024 10:20 pm BST